Flight Track Log - Related Links

Times and Time Zones

All times are in EDT time to prevent confusion due to time zone crossing. See the CSC8704 flight status page for this flight to view local times or setup timezone preferences in your user account.

Time Position Orientation Groundspeed Altitude Reporting Facility
EDT Latitude Longitude Course Direction KTS MPH feet Rate Location/Type
Mon 07:18:15 AM 22.5168 113.8795 136° Southeast 252 290 5,600  Level FlightAware ADS-B
Mon 07:18:38 AM 22.5064 113.9080 136° Southeast 252 290 6,600 2,609 Climbing FlightAware ADS-B
Mon 07:21:00 AM 22.6631 113.7340 314° West  Level Estimated
Mon 07:22:00 AM 22.7292 113.6603 314° West  Level Estimated
Mon 07:23:00 AM 22.7954 113.5866 314° West  Level Estimated
Mon 07:24:00 AM 22.8615 113.5128 314° West  Level Estimated
Mon 07:25:00 AM 22.9275 113.4389 314° West  Level Estimated
Mon 07:26:00 AM 22.9935 113.3650 314° West  Level Estimated
Mon 07:27:00 AM 23.0595 113.2909 314° West  Level Estimated
Mon 07:28:00 AM 23.1255 113.2168 314° West  Level Estimated
Mon 07:29:00 AM 23.1914 113.1427 314° West  Level Estimated
Mon 07:30:00 AM 23.2573 113.0684 314° West  Level Estimated
Mon 07:31:00 AM 23.3231 112.9941 314° West  Level Estimated
Mon 07:32:00 AM 23.3889 112.9197 314° West  Level Estimated
Mon 07:33:00 AM 23.4547 112.8453 314° West  Level Estimated
Mon 07:34:00 AM 23.5205 112.7707 314° West  Level Estimated
Mon 07:35:00 AM 23.5862 112.6961 314° West  Level Estimated
Mon 07:36:00 AM 23.6518 112.6215 314° West  Level Estimated
Mon 07:37:00 AM 23.7175 112.5467 314° West  Level Estimated
Mon 07:38:00 AM 23.7831 112.4719 314° West  Level Estimated
Mon 07:39:00 AM 23.8486 112.3969 314° West  Level Estimated
Mon 07:40:00 AM 23.9142 112.3220 314° West  Level Estimated
Mon 07:41:00 AM 23.9797 112.2469 314° West  Level Estimated
Mon 07:42:00 AM 24.0451 112.1718 314° West  Level Estimated
Mon 07:43:00 AM 24.1105 112.0965 314° West  Level Estimated
Mon 07:44:00 AM 24.1759 112.0213 314° West  Level Estimated
Mon 07:45:00 AM 24.2412 111.9459 314° West  Level Estimated
Mon 07:46:00 AM 24.3066 111.8704 314° West  Level Estimated
Mon 07:47:00 AM 24.3718 111.7949 314° West  Level Estimated
Mon 07:48:00 AM 24.4371 111.7193 313° West  Level Estimated
Mon 07:49:00 AM 24.5023 111.6436 313° West  Level Estimated
Mon 07:50:00 AM 24.5674 111.5679 313° West  Level Estimated
Mon 07:51:00 AM 24.6325 111.4920 313° West  Level Estimated
Mon 07:52:00 AM 24.6976 111.4161 313° West  Level Estimated
Mon 07:53:00 AM 24.7626 111.3401 313° West  Level Estimated
Mon 07:54:00 AM 24.8277 111.2641 313° West  Level Estimated
Mon 07:55:00 AM 24.8926 111.1879 313° West  Level Estimated
Mon 07:56:00 AM 24.9576 111.1117 313° West  Level Estimated
Mon 07:57:00 AM 25.0224 111.0353 313° West  Level Estimated
Mon 07:58:00 AM 25.0873 110.9589 313° West  Level Estimated
Mon 07:59:00 AM 25.1521 110.8825 313° West  Level Estimated
Mon 08:00:00 AM 25.2169 110.8059 313° West  Level Estimated
Mon 08:01:00 AM 25.2816 110.7293 313° West  Level Estimated
Mon 08:02:00 AM 25.3463 110.6526 313° West  Level Estimated
Mon 08:03:00 AM 25.4109 110.5758 313° West  Level Estimated
Mon 08:04:00 AM 25.4755 110.4989 313° West  Level Estimated
Mon 08:05:00 AM 25.5401 110.4219 313° West  Level Estimated
Mon 08:06:00 AM 25.6047 110.3448 313° West  Level Estimated
Mon 08:07:00 AM 25.6691 110.2677 313° West  Level Estimated
Mon 08:08:00 AM 25.7336 110.1905 313° West  Level Estimated
Mon 08:09:00 AM 25.7980 110.1132 313° West  Level Estimated
Mon 08:10:00 AM 25.8624 110.0358 313° West  Level Estimated
Mon 08:11:00 AM 25.9267 109.9583 313° West  Level Estimated
Mon 08:12:00 AM 25.9910 109.8808 313° West  Level Estimated
Mon 08:13:00 AM 26.0552 109.8031 313° West  Level Estimated
Mon 08:14:00 AM 26.1194 109.7254 313° West  Level Estimated
Mon 08:15:00 AM 26.1836 109.6476 313° West  Level Estimated
Mon 08:16:00 AM 26.2477 109.5697 313° West  Level Estimated
Mon 08:17:00 AM 26.3118 109.4917 313° West  Level Estimated
Mon 08:18:00 AM 26.3758 109.4137 312° West  Level Estimated
Mon 08:19:00 AM 26.4398 109.3355 312° West  Level Estimated
Mon 08:20:00 AM 26.5038 109.2573 312° West  Level Estimated
Mon 08:21:00 AM 26.5677 109.1789 312° West  Level Estimated
Mon 08:22:00 AM 26.6315 109.1005 312° West  Level Estimated
Mon 08:23:00 AM 26.6954 109.0220 312° West  Level Estimated
Mon 08:24:00 AM 26.7591 108.9434 312° West  Level Estimated
Mon 08:25:00 AM 26.8229 108.8647 312° West  Level Estimated
Mon 08:26:00 AM 26.8866 108.7860 312° West  Level Estimated
Mon 08:27:00 AM 26.9502 108.7071 312° West  Level Estimated
Mon 08:28:00 AM 27.0138 108.6282 312° West  Level Estimated
Mon 08:29:00 AM 27.0774 108.5491 312° West  Level Estimated
Mon 08:30:00 AM 27.1409 108.4700 312° West  Level Estimated
Mon 08:31:00 AM 27.2044 108.3908 312° West  Level Estimated
Mon 08:32:00 AM 27.2678 108.3115 312° West  Level Estimated
Mon 08:33:00 AM 27.3312 108.2321 312° West  Level Estimated
Mon 08:34:00 AM 27.3945 108.1526 312° West  Level Estimated
Mon 08:35:00 AM 27.4578 108.0730 312° West  Level Estimated
Mon 08:36:00 AM 27.5211 107.9933 312° West  Level Estimated
Mon 08:37:00 AM 27.5843 107.9136 312° West  Level Estimated
Mon 08:38:00 AM 27.6474 107.8337 312° West  Level Estimated
Mon 08:39:00 AM 27.7105 107.7538 312° West  Level Estimated
Mon 08:40:00 AM 27.7736 107.6738 312° West  Level Estimated
Mon 08:41:00 AM 27.8366 107.5936 312° West  Level Estimated
Mon 08:42:00 AM 27.8996 107.5134 312° West  Level Estimated
Mon 08:43:00 AM 27.9625 107.4331 312° West  Level Estimated
Mon 08:44:00 AM 28.0254 107.3527 312° West  Level Estimated
Mon 08:45:00 AM 28.0882 107.2722 312° West  Level Estimated
Mon 08:46:00 AM 28.1510 107.1916 311° West  Level Estimated
Mon 08:47:00 AM 28.2137 107.1109 311° West  Level Estimated
Mon 08:48:00 AM 28.2764 107.0301 311° West  Level Estimated
Mon 08:49:00 AM 28.3391 106.9492 311° West  Level Estimated
Mon 08:50:00 AM 28.4017 106.8682 311° West  Level Estimated
Mon 08:51:00 AM 28.4642 106.7871 311° West  Level Estimated
Mon 08:52:00 AM 28.5267 106.7060 311° West  Level Estimated
Mon 08:53:00 AM 28.5892 106.6247 311° West  Level Estimated
Mon 08:54:00 AM 28.6516 106.5433 311° West  Level Estimated
Mon 08:55:00 AM 28.7139 106.4619 311° West  Level Estimated
Mon 08:56:00 AM 28.7762 106.3803 311° West  Level Estimated
Mon 08:57:00 AM 28.8385 106.2987 311° West  Level Estimated
Mon 08:58:00 AM 28.9007 106.2169 311° West  Level Estimated
Mon 08:59:00 AM 28.9628 106.1351 311° West  Level Estimated
Mon 09:00:00 AM 29.0249 106.0531 311° West  Level Estimated
Mon 09:01:00 AM 29.0870 105.9711 311° West  Level Estimated
Mon 09:02:00 AM 29.1490 105.8889 311° West  Level Estimated
Mon 09:03:00 AM 29.2110 105.8067 311° West  Level Estimated
Mon 09:04:00 AM 29.2729 105.7243 311° West  Level Estimated
Mon 09:05:00 AM 29.3347 105.6419 311° West  Level Estimated
Mon 09:06:00 AM 29.3965 105.5593 311° West  Level Estimated
Mon 09:07:00 AM 29.4583 105.4767 311° West  Level Estimated
Mon 09:08:00 AM 29.5200 105.3939 311° West  Level Estimated
Mon 09:09:00 AM 29.5816 105.3111 311° West  Level Estimated
Mon 09:10:00 AM 29.6432 105.2281 311° West  Level Estimated
Mon 09:11:00 AM 29.7048 105.1451 310° West  Level Estimated
Mon 09:12:00 AM 29.7663 105.0620 310° West  Level Estimated
Mon 09:13:00 AM 29.8277 104.9787 310° West  Level Estimated
Mon 09:14:00 AM 29.8891 104.8953 310° West  Level Estimated
Mon 09:15:00 AM 29.9505 104.8119 310° West  Level Estimated
Mon 09:16:00 AM 30.0117 104.7283 310° West  Level Estimated
Mon 09:17:00 AM 30.0730 104.6447 310° West  Level Estimated
Mon 09:18:00 AM 30.1342 104.5609 310° West  Level Estimated
Mon 09:19:00 AM 30.1953 104.4770 310° West  Level Estimated
Mon 09:20:00 AM 30.2564 104.3930 310° West  Level Estimated
Mon 09:21:00 AM 30.3174 104.3090 310° West  Level Estimated
Mon 09:22:00 AM 30.3783 104.2248 310° West  Level Estimated
Mon 09:23:00 AM 30.4393 104.1405 310° West  Level Estimated
Mon 09:24:00 AM 30.5001 104.0561 310° West  Level Estimated
Mon 09:25:00 AM 30.5609 103.9716 310° West  Level Estimated
Mon 09:26:00 AM 30.5785 103.9471 310° West  Level Estimated
Mon 09:27:00 AM 30.5785 103.9471 North  Level Estimated
Mon 09:28:00 AM 30.5785 103.9471 North  Level Estimated
Mon 09:29:00 AM 30.5785 103.9471 North  Level Estimated
Mon 09:30:00 AM 30.5785 103.9471 North  Level Estimated
Mon 09:31:00 AM 30.5785 103.9471 North  Level Estimated
Mon 09:32:00 AM 30.5785 103.9471 North  Level Estimated
Mon 09:33:00 AM 30.5785 103.9471 North  Level Estimated
Mon 09:34:00 AM 30.5785 103.9471 North  Level Estimated
Mon 09:35:00 AM 30.5785 103.9471 North  Level Estimated
Mon 09:36:00 AM 30.5785 103.9471 North  Level Estimated

Login

Don't have an account? Register now (free) for customized features, flight alerts, and more!